Time;durP1;ratioP1;P1;durP2;ratioP2;P2;SDS_P1;SDS_P2;PMS_P1;PMS_P2;Temp;Humidity;BMP_temperature;BMP_pressure;BME280_temperature;BME280_humidity;BME280_pressure;Samples;Min_cycle;Max_cycle;Signal;HPM_P1;HPM_P2
2022/02/22 00:00:15;;;;;;;;;;;5.60;99.90;;;;;;5071908;28;19916;-50
2022/02/22 00:02:41;;;;;;;;;;;5.60;99.90;;;;;;5071816;28;19916;-48
2022/02/22 00:05:07;;;;;;;;;;;5.60;99.90;;;;;;5074745;28;19943;-48
2022/02/22 00:07:33;;;;;;;;;;;5.60;99.90;;;;;;5075988;28;19978;-49
2022/02/22 00:09:58;;;;;;;;;;;5.60;99.90;;;;;;5074747;28;20053;-48
2022/02/22 00:12:24;;;;;;;;;;;5.60;99.90;;;;;;5075966;28;19917;-46
2022/02/22 00:14:49;;;;;;;;;;;5.60;99.90;;;;;;5076017;28;19916;-47
2022/02/22 00:17:15;;;;;;;;;;;5.60;99.90;;;;;;5075787;28;20388;-47
2022/02/22 00:19:40;;;;;;;;;;;5.60;99.90;;;;;;5075723;28;20358;-47
2022/02/22 00:22:06;;;;;;;;;;;5.60;99.90;;;;;;5108741;28;19923;-52
2022/02/22 00:24:32;;;;;;;;;;;5.60;99.90;;;;;;5075741;28;20366;-48
2022/02/22 00:26:58;;;;;;;;;;;5.60;99.90;;;;;;5074479;28;19923;-46
2022/02/22 00:29:23;;;;;;;;;;;5.60;99.90;;;;;;5075447;28;19921;-45
2022/02/22 00:31:49;;;;;;;;;;;5.70;99.90;;;;;;5075560;28;19920;-47
2022/02/22 00:34:14;;;;;;;;;;;5.60;99.90;;;;;;5075402;28;19920;-49
2022/02/22 00:36:40;;;;;;;;;;;5.60;99.90;;;;;;5075592;28;20323;-51
2022/02/22 00:39:06;;;;;;;;;;;5.60;99.90;;;;;;5075566;28;20365;-50
2022/02/22 00:41:31;;;;;;;;;;;5.60;99.90;;;;;;5074418;28;19923;-49
2022/02/22 00:43:57;;;;;;;;;;;5.60;99.90;;;;;;5075613;28;19916;-47
2022/02/22 00:46:23;;;;;;;;;;;5.60;99.90;;;;;;5075630;28;19963;-48
2022/02/22 00:48:49;;;;;;;;;;;5.60;99.90;;;;;;5075307;28;20347;-46
2022/02/22 00:51:14;;;;;;;;;;;5.50;99.90;;;;;;5075391;28;19923;-49
2022/02/22 00:53:40;;;;;;;;;;;5.60;99.90;;;;;;5075380;28;20389;-47
2022/02/22 00:56:05;;;;;;;;;;;5.70;99.90;;;;;;5075267;28;19921;-50
2022/02/22 00:58:31;;;;;;;;;;;5.70;99.90;;;;;;5075141;28;20408;-50
2022/02/22 01:00:56;;;;;;;;;;;5.60;99.90;;;;;;5074940;28;19923;-47
2022/02/22 01:03:22;;;;;;;;;;;5.60;99.90;;;;;;5074973;28;19916;-48
2022/02/22 01:05:47;;;;;;;;;;;5.50;99.90;;;;;;5075027;28;20276;-46
2022/02/22 01:08:13;;;;;;;;;;;5.50;99.90;;;;;;5074886;28;19916;-47
2022/02/22 01:10:38;;;;;;;;;;;5.50;99.90;;;;;;5075135;28;19916;-50
2022/02/22 01:13:04;;;;;;;;;;;5.40;99.90;;;;;;5075207;28;20339;-50
2022/02/22 01:15:30;;;;;;;;;;;5.40;99.90;;;;;;5074041;28;20003;-46
2022/02/22 01:17:56;;;;;;;;;;;5.30;99.90;;;;;;5074837;28;19920;-46
2022/02/22 01:20:22;;;;;;;;;;;5.30;99.90;;;;;;5074691;28;19939;-47
2022/02/22 01:22:52;;;;;;;;;;;5.20;99.90;;;;;;5074797;28;20039;-47
2022/02/22 01:25:17;;;;;;;;;;;5.20;99.90;;;;;;5074410;28;19995;-47
2022/02/22 01:27:43;;;;;;;;;;;5.10;99.90;;;;;;5074593;28;19946;-49
2022/02/22 01:30:09;;;;;;;;;;;5.10;99.90;;;;;;5074682;28;19928;-48
2022/02/22 01:32:34;;;;;;;;;;;5.00;99.90;;;;;;5074679;28;20459;-49
2022/02/22 01:35:00;;;;;;;;;;;5.00;99.90;;;;;;5074463;28;20381;-49
2022/02/22 01:37:25;;;;;;;;;;;4.90;99.90;;;;;;5074747;28;19927;-46
2022/02/22 01:39:51;;;;;;;;;;;4.90;99.90;;;;;;5074470;28;20282;-50
2022/02/22 01:42:17;;;;;;;;;;;4.90;99.90;;;;;;5074228;28;20350;-50
2022/02/22 01:44:45;;;;;;;;;;;5.00;99.90;;;;;;5073126;28;19923;-50
2022/02/22 01:47:12;;;;;;;;;;;5.00;99.90;;;;;;5073814;28;19916;-50
2022/02/22 01:49:38;;;;;;;;;;;5.00;99.90;;;;;;5074418;28;20306;-46
2022/02/22 01:52:04;;;;;;;;;;;5.00;99.90;;;;;;5074346;28;19978;-46
2022/02/22 01:54:30;;;;;;;;;;;5.00;99.90;;;;;;5074131;28;20075;-49
2022/02/22 01:56:56;;;;;;;;;;;4.90;99.90;;;;;;5073789;28;19920;-50
2022/02/22 01:59:22;;;;;;;;;;;4.90;99.90;;;;;;5073938;28;19923;-46
2022/02/22 02:01:47;;;;;;;;;;;4.90;99.90;;;;;;5073717;28;20294;-46
2022/02/22 02:04:13;;;;;;;;;;;4.90;99.90;;;;;;5074125;28;19917;-46
2022/02/22 02:06:39;;;;;;;;;;;4.80;99.90;;;;;;5073910;28;19970;-47
2022/02/22 02:09:06;;;;;;;;;;;4.80;99.90;;;;;;5073700;28;19916;-51
2022/02/22 02:11:41;;;;;;;;;;;4.80;99.90;;;;;;5073817;28;19916;-48
2022/02/22 02:14:07;;;;;;;;;;;4.80;99.90;;;;;;5073613;28;19924;-51
2022/02/22 02:16:32;;;;;;;;;;;4.70;99.90;;;;;;5073539;28;19917;-46
2022/02/22 02:18:58;;;;;;;;;;;4.70;99.90;;;;;;5073392;28;19916;-47
2022/02/22 02:21:24;;;;;;;;;;;4.80;99.90;;;;;;5072378;28;19923;-48
2022/02/22 02:23:49;;;;;;;;;;;4.70;99.90;;;;;;5073378;28;19986;-50
2022/02/22 02:26:15;;;;;;;;;;;4.70;99.90;;;;;;5073422;28;19934;-51
2022/02/22 02:28:40;;;;;;;;;;;4.70;99.90;;;;;;5072284;28;19920;-50
2022/02/22 02:31:06;;;;;;;;;;;4.70;99.90;;;;;;5072001;28;20032;-49
2022/02/22 02:33:32;;;;;;;;;;;4.60;99.90;;;;;;5073517;28;19917;-47
2022/02/22 02:35:57;;;;;;;;;;;4.70;99.90;;;;;;5073371;28;19966;-50
2022/02/22 02:38:23;;;;;;;;;;;4.70;99.90;;;;;;5105624;28;20549;-48
2022/02/22 02:40:49;;;;;;;;;;;4.70;99.90;;;;;;5073265;28;19920;-49
2022/02/22 02:43:15;;;;;;;;;;;4.70;99.90;;;;;;5072987;28;19956;-48
2022/02/22 02:45:40;;;;;;;;;;;4.80;99.90;;;;;;5073003;28;19921;-51
2022/02/22 02:48:06;;;;;;;;;;;4.80;99.90;;;;;;5073100;28;19923;-48
2022/02/22 02:50:31;;;;;;;;;;;4.70;99.90;;;;;;5071543;28;19938;-47
2022/02/22 02:52:57;;;;;;;;;;;4.70;99.90;;;;;;5072963;28;20266;-47
2022/02/22 02:55:22;;;;;;;;;;;4.80;99.90;;;;;;5072978;28;19923;-47
2022/02/22 02:57:48;;;;;;;;;;;4.80;99.90;;;;;;5071208;28;19956;-47
2022/02/22 03:00:14;;;;;;;;;;;4.80;99.90;;;;;;5072978;28;20007;-50
2022/02/22 03:02:39;;;;;;;;;;;4.90;99.90;;;;;;5072957;28;20297;-50
2022/02/22 03:05:06;;;;;;;;;;;4.80;99.90;;;;;;5072662;28;20396;-46
2022/02/22 03:07:32;;;;;;;;;;;4.80;99.90;;;;;;5072413;28;20377;-47
2022/02/22 03:09:57;;;;;;;;;;;4.70;99.90;;;;;;5072526;28;19916;-47
2022/02/22 03:12:23;;;;;;;;;;;4.70;99.90;;;;;;5072365;28;19971;-49
2022/02/22 03:14:49;;;;;;;;;;;4.60;99.90;;;;;;5072447;28;20446;-50
2022/02/22 03:17:14;;;;;;;;;;;4.60;99.90;;;;;;5072898;28;20023;-47
2022/02/22 03:19:40;;;;;;;;;;;4.60;99.90;;;;;;5072831;28;20023;-46
2022/02/22 03:22:05;;;;;;;;;;;4.50;99.90;;;;;;5072224;28;19916;-45
2022/02/22 03:24:31;;;;;;;;;;;4.50;99.90;;;;;;5072596;28;19965;-46
2022/02/22 03:26:57;;;;;;;;;;;4.50;99.90;;;;;;5072592;28;19916;-48
2022/02/22 03:29:22;;;;;;;;;;;4.40;99.90;;;;;;5072706;28;20347;-48
2022/02/22 03:31:48;;;;;;;;;;;4.50;99.90;;;;;;5072468;28;20284;-50
2022/02/22 03:34:13;;;;;;;;;;;4.40;99.90;;;;;;5072342;28;19967;-47
2022/02/22 03:36:39;;;;;;;;;;;4.40;99.90;;;;;;5072424;28;19963;-47
2022/02/22 03:39:05;;;;;;;;;;;4.40;99.90;;;;;;5071869;28;19920;-51
2022/02/22 03:41:30;;;;;;;;;;;4.40;99.90;;;;;;5072677;28;19916;-47
2022/02/22 03:43:56;;;;;;;;;;;4.40;99.90;;;;;;5104841;28;19969;-46
2022/02/22 03:46:22;;;;;;;;;;;4.50;99.90;;;;;;5072327;28;20389;-47
2022/02/22 03:48:47;;;;;;;;;;;4.30;99.90;;;;;;5072311;28;19916;-51
2022/02/22 03:51:13;;;;;;;;;;;4.30;99.90;;;;;;5072147;28;19938;-48
2022/02/22 03:53:38;;;;;;;;;;;4.30;99.90;;;;;;5072625;28;19999;-48
2022/02/22 03:56:04;;;;;;;;;;;4.30;99.90;;;;;;5072324;28;19924;-45
2022/02/22 03:58:30;;;;;;;;;;;4.30;99.90;;;;;;5072247;28;19931;-46
2022/02/22 04:00:55;;;;;;;;;;;4.30;99.90;;;;;;5072086;28;19942;-50
2022/02/22 04:03:20;;;;;;;;;;;4.20;99.90;;;;;;5104709;28;20340;-49
2022/02/22 04:05:46;;;;;;;;;;;4.30;99.90;;;;;;5071873;28;20007;-51
2022/02/22 04:08:12;;;;;;;;;;;4.20;99.90;;;;;;5071927;28;20015;-50
2022/02/22 04:10:38;;;;;;;;;;;4.10;99.90;;;;;;5071785;28;19956;-48
2022/02/22 04:13:03;;;;;;;;;;;4.20;99.90;;;;;;5070480;28;19959;-46
2022/02/22 04:15:29;;;;;;;;;;;4.20;99.90;;;;;;5071770;28;20286;-52
2022/02/22 04:17:54;;;;;;;;;;;4.10;99.90;;;;;;5104457;28;20075;-52
2022/02/22 04:20:20;;;;;;;;;;;4.20;99.90;;;;;;5071780;28;19923;-49
2022/02/22 04:22:45;;;;;;;;;;;4.10;99.90;;;;;;5071950;28;20065;-52
2022/02/22 04:25:11;;;;;;;;;;;4.20;99.90;;;;;;5071667;28;19921;-48
2022/02/22 04:27:36;;;;;;;;;;;4.20;99.90;;;;;;5071602;28;19916;-51
2022/02/22 04:30:04;;;;;;;;;;;4.20;99.90;;;;;;5071807;28;19924;-51
2022/02/22 04:32:29;;;;;;;;;;;4.10;99.90;;;;;;5072143;28;19951;-52
2022/02/22 04:34:55;;;;;;;;;;;4.10;99.90;;;;;;5071956;28;19924;-53
2022/02/22 04:37:20;;;;;;;;;;;4.10;99.90;;;;;;5071804;28;19920;-51
2022/02/22 04:39:47;;;;;;;;;;;4.10;99.90;;;;;;5070242;28;20059;-52
2022/02/22 04:42:13;;;;;;;;;;;4.20;99.90;;;;;;5071376;28;20354;-48
2022/02/22 04:44:39;;;;;;;;;;;4.10;99.90;;;;;;5071707;28;19939;-49
2022/02/22 04:47:05;;;;;;;;;;;4.20;99.90;;;;;;5071529;28;19916;-52
2022/02/22 04:49:31;;;;;;;;;;;4.20;99.90;;;;;;5071499;28;20381;-48
2022/02/22 04:51:56;;;;;;;;;;;4.10;99.90;;;;;;5074307;28;19967;-46
2022/02/22 04:54:22;;;;;;;;;;;4.10;99.90;;;;;;5074953;28;19921;-45
2022/02/22 04:56:47;;;;;;;;;;;4.10;99.90;;;;;;5074851;28;19916;-49
2022/02/22 04:59:13;;;;;;;;;;;4.10;99.90;;;;;;5074915;28;19982;-50
2022/02/22 05:01:38;;;;;;;;;;;4.00;99.90;;;;;;5074959;28;19921;-48
2022/02/22 05:04:04;;;;;;;;;;;4.00;99.90;;;;;;5074932;28;20381;-48
2022/02/22 05:06:29;;;;;;;;;;;4.00;99.90;;;;;;5074728;28;19924;-47
2022/02/22 05:08:55;;;;;;;;;;;4.10;99.90;;;;;;5074710;28;19927;-50
2022/02/22 05:11:20;;;;;;;;;;;4.10;99.90;;;;;;5074757;28;19921;-51
2022/02/22 05:13:46;;;;;;;;;;;4.00;99.90;;;;;;5075204;28;19967;-50
2022/02/22 05:16:12;;;;;;;;;;;4.00;99.90;;;;;;5073449;28;19916;-47
2022/02/22 05:18:37;;;;;;;;;;;4.00;99.90;;;;;;5074604;28;19986;-46
2022/02/22 05:21:03;;;;;;;;;;;4.10;99.90;;;;;;5074554;28;19916;-50
2022/02/22 05:23:33;;;;;;;;;;;4.00;99.90;;;;;;5074498;28;19917;-51
2022/02/22 05:25:58;;;;;;;;;;;4.10;99.90;;;;;;5074306;28;20483;-48
2022/02/22 05:28:26;;;;;;;;;;;4.00;99.90;;;;;;5074549;28;20024;-48
2022/02/22 05:30:52;;;;;;;;;;;4.10;99.90;;;;;;5074181;28;19998;-51
2022/02/22 05:33:18;;;;;;;;;;;4.10;99.90;;;;;;5074345;28;19916;-46
2022/02/22 05:35:44;;;;;;;;;;;4.10;99.90;;;;;;5074297;28;19916;-46
2022/02/22 05:38:09;;;;;;;;;;;4.10;99.90;;;;;;5074020;28;20053;-51
2022/02/22 05:40:35;;;;;;;;;;;4.10;99.90;;;;;;5074538;28;19920;-49
2022/02/22 05:43:01;;;;;;;;;;;4.10;99.90;;;;;;5074236;28;19916;-46
2022/02/22 05:45:26;;;;;;;;;;;4.10;99.90;;;;;;5074150;28;19920;-47
2022/02/22 05:47:51;;;;;;;;;;;4.10;99.90;;;;;;5073926;28;20278;-48
2022/02/22 05:50:17;;;;;;;;;;;4.10;99.90;;;;;;5074068;28;19916;-46
2022/02/22 05:52:43;;;;;;;;;;;4.10;99.90;;;;;;5074151;28;19970;-50
2022/02/22 05:55:08;;;;;;;;;;;4.10;99.90;;;;;;5073704;28;20342;-50
2022/02/22 05:57:34;;;;;;;;;;;4.10;99.90;;;;;;5074174;28;19920;-48
2022/02/22 05:59:59;;;;;;;;;;;4.10;99.90;;;;;;5074111;28;20358;-49
2022/02/22 06:02:25;;;;;;;;;;;4.10;99.90;;;;;;5073845;28;20049;-46
2022/02/22 06:04:50;;;;;;;;;;;4.10;99.90;;;;;;5106216;28;19916;-49
2022/02/22 06:07:20;;;;;;;;;;;4.10;99.90;;;;;;5073748;28;20385;-51
2022/02/22 06:09:45;;;;;;;;;;;4.10;99.90;;;;;;5072409;28;19920;-47
2022/02/22 06:12:11;;;;;;;;;;;4.20;99.90;;;;;;5073797;28;19939;-47
2022/02/22 06:14:36;;;;;;;;;;;4.20;99.90;;;;;;5073442;28;19961;-51
2022/02/22 06:17:03;;;;;;;;;;;4.20;99.90;;;;;;5073372;28;19916;-50
2022/02/22 06:19:28;;;;;;;;;;;4.10;99.90;;;;;;5073720;28;19924;-49
2022/02/22 06:21:54;;;;;;;;;;;4.00;99.90;;;;;;5073303;28;19916;-47
2022/02/22 06:24:19;;;;;;;;;;;4.10;99.90;;;;;;5073114;28;19999;-47
2022/02/22 06:26:45;;;;;;;;;;;4.10;99.90;;;;;;5073385;28;19924;-46
2022/02/22 06:29:10;;;;;;;;;;;4.00;99.90;;;;;;5073283;28;19939;-50
2022/02/22 06:31:36;;;;;;;;;;;4.00;99.90;;;;;;5073007;28;19928;-51
2022/02/22 06:34:04;;;;;;;;;;;4.00;99.90;;;;;;5073045;28;19923;-51
2022/02/22 06:36:30;;;;;;;;;;;4.00;99.90;;;;;;5072992;28;19939;-49
2022/02/22 06:38:56;;;;;;;;;;;4.00;99.90;;;;;;5073049;28;20366;-49
2022/02/22 06:41:21;;;;;;;;;;;4.00;99.90;;;;;;5073065;28;19923;-47
2022/02/22 06:43:47;;;;;;;;;;;4.00;99.90;;;;;;5072931;28;20374;-46
2022/02/22 06:46:12;;;;;;;;;;;4.00;99.90;;;;;;5072980;28;20282;-51
2022/02/22 06:48:38;;;;;;;;;;;4.00;99.90;;;;;;5073013;28;19927;-49
2022/02/22 06:51:03;;;;;;;;;;;4.00;99.90;;;;;;5072920;28;19923;-50
2022/02/22 06:53:29;;;;;;;;;;;3.90;99.90;;;;;;5072604;28;19974;-50
2022/02/22 06:55:54;;;;;;;;;;;3.90;99.90;;;;;;5073155;28;19921;-50
2022/02/22 06:58:20;;;;;;;;;;;3.90;99.90;;;;;;5072631;28;19920;-50
2022/02/22 07:00:48;;;;;;;;;;;3.80;99.90;;;;;;5071500;28;20321;-51
2022/02/22 07:03:14;;;;;;;;;;;3.80;99.90;;;;;;5072671;28;19969;-49
2022/02/22 07:05:40;;;;;;;;;;;3.80;99.90;;;;;;5072691;28;20363;-48
2022/02/22 07:08:05;;;;;;;;;;;3.70;99.90;;;;;;5072310;28;20362;-51
2022/02/22 07:10:31;;;;;;;;;;;3.70;99.90;;;;;;5072646;28;19916;-52
2022/02/22 07:12:56;;;;;;;;;;;3.80;99.90;;;;;;5071997;28;19999;-48
2022/02/22 07:15:22;;;;;;;;;;;3.80;99.90;;;;;;5072176;28;19970;-50
2022/02/22 07:17:49;;;;;;;;;;;3.80;99.90;;;;;;5072306;28;20045;-49
2022/02/22 07:20:15;;;;;;;;;;;3.90;99.90;;;;;;5072401;28;20429;-50
2022/02/22 07:22:41;;;;;;;;;;;3.90;99.90;;;;;;5072331;28;20011;-46
2022/02/22 07:25:11;;;;;;;;;;;4.00;99.90;;;;;;5072426;28;19935;-49
2022/02/22 07:27:36;;;;;;;;;;;4.10;99.90;;;;;;5072355;28;19916;-50
2022/02/22 07:30:03;;;;;;;;;;;4.20;99.90;;;;;;5072064;28;20336;-50
2022/02/22 07:32:29;;;;;;;;;;;4.20;99.90;;;;;;5072076;28;19917;-48
2022/02/22 07:34:55;;;;;;;;;;;4.40;99.90;;;;;;5072057;28;19928;-46
2022/02/22 07:37:20;;;;;;;;;;;4.40;99.90;;;;;;5072223;28;20021;-51
2022/02/22 07:39:46;;;;;;;;;;;4.50;99.90;;;;;;5072323;28;19923;-50
2022/02/22 07:42:11;;;;;;;;;;;4.60;99.90;;;;;;5072605;28;19926;-48
2022/02/22 07:44:37;;;;;;;;;;;4.70;99.90;;;;;;5072180;28;20411;-50
2022/02/22 07:47:02;;;;;;;;;;;4.60;99.90;;;;;;5072160;28;19921;-53
2022/02/22 07:49:28;;;;;;;;;;;4.60;99.90;;;;;;5072037;28;19917;-52
2022/02/22 07:51:53;;;;;;;;;;;4.60;99.90;;;;;;5071914;28;19920;-53
2022/02/22 07:54:19;;;;;;;;;;;4.70;99.90;;;;;;5072172;28;19939;-52
2022/02/22 07:56:44;;;;;;;;;;;4.70;99.90;;;;;;5072040;28;20302;-51
2022/02/22 07:59:10;;;;;;;;;;;4.70;99.90;;;;;;5104389;28;19916;-52
2022/02/22 08:01:36;;;;;;;;;;;4.80;99.90;;;;;;5072059;28;19924;-51
2022/02/22 08:04:01;;;;;;;;;;;4.80;99.90;;;;;;5072071;28;19916;-51
2022/02/22 08:06:27;;;;;;;;;;;5.00;99.90;;;;;;5071784;28;19920;-52
2022/02/22 08:08:52;;;;;;;;;;;5.00;99.90;;;;;;5071860;28;19967;-48
2022/02/22 08:11:18;;;;;;;;;;;5.10;99.90;;;;;;5071808;28;20021;-50
2022/02/22 08:13:43;;;;;;;;;;;5.20;99.90;;;;;;5071983;28;19916;-52
2022/02/22 08:16:09;;;;;;;;;;;5.30;99.90;;;;;;5071993;28;19931;-53
2022/02/22 08:18:35;;;;;;;;;;;5.40;99.90;;;;;;5104704;28;19921;-52
2022/02/22 08:21:00;;;;;;;;;;;5.50;99.90;;;;;;5071730;28;19923;-51
2022/02/22 08:23:30;;;;;;;;;;;5.60;99.90;;;;;;5071890;28;19916;-52
2022/02/22 08:25:57;;;;;;;;;;;5.70;99.90;;;;;;5074698;28;19935;-48
2022/02/22 08:28:22;;;;;;;;;;;5.70;99.90;;;;;;5075809;28;20456;-53
2022/02/22 08:30:48;;;;;;;;;;;5.70;99.90;;;;;;5075126;28;20019;-52
2022/02/22 08:33:13;;;;;;;;;;;5.80;99.90;;;;;;5075240;28;19917;-49
2022/02/22 08:35:39;;;;;;;;;;;5.80;99.90;;;;;;5075226;28;19916;-53
2022/02/22 08:38:04;;;;;;;;;;;5.80;99.90;;;;;;5075567;28;19936;-49
2022/02/22 08:40:30;;;;;;;;;;;5.90;99.90;;;;;;5075264;28;19959;-52
2022/02/22 08:42:56;;;;;;;;;;;5.90;99.90;;;;;;5075086;28;19923;-53
2022/02/22 08:45:22;;;;;;;;;;;5.90;99.90;;;;;;5074994;28;20290;-53
2022/02/22 08:47:47;;;;;;;;;;;6.00;99.90;;;;;;5075193;28;19920;-48
2022/02/22 08:50:13;;;;;;;;;;;6.30;99.90;;;;;;5075021;28;20014;-53
2022/02/22 08:52:38;;;;;;;;;;;6.30;99.90;;;;;;5075293;28;19916;-51
2022/02/22 08:55:04;;;;;;;;;;;6.40;99.90;;;;;;5107813;28;19923;-49
2022/02/22 08:57:30;;;;;;;;;;;6.50;99.90;;;;;;5074947;28;19982;-52
2022/02/22 08:59:55;;;;;;;;;;;6.50;99.90;;;;;;5074897;28;19927;-51
2022/02/22 09:02:21;;;;;;;;;;;6.60;99.90;;;;;;5074958;28;19917;-50
2022/02/22 09:04:46;;;;;;;;;;;6.60;99.90;;;;;;5073417;28;20530;-50
2022/02/22 09:07:12;;;;;;;;;;;6.60;99.90;;;;;;5075140;28;19917;-48
2022/02/22 09:09:38;;;;;;;;;;;6.60;99.90;;;;;;5074967;28;19916;-48
2022/02/22 09:12:04;;;;;;;;;;;6.70;99.90;;;;;;5074863;28;19916;-48
2022/02/22 09:14:29;;;;;;;;;;;6.60;99.90;;;;;;5074813;28;20299;-51
2022/02/22 09:16:55;;;;;;;;;;;6.60;99.90;;;;;;5074475;28;19920;-51
2022/02/22 09:19:20;;;;;;;;;;;6.70;99.90;;;;;;5074974;28;20003;-48
2022/02/22 09:21:46;;;;;;;;;;;6.60;99.90;;;;;;5074246;28;20325;-50
2022/02/22 09:24:12;;;;;;;;;;;6.60;99.90;;;;;;5074687;28;19991;-48
2022/02/22 09:26:37;;;;;;;;;;;6.60;99.90;;;;;;5074198;28;20277;-50
2022/02/22 09:29:03;;;;;;;;;;;6.70;99.90;;;;;;5074506;28;19916;-50
2022/02/22 09:31:29;;;;;;;;;;;6.60;99.90;;;;;;5074020;28;20274;-52
2022/02/22 09:33:54;;;;;;;;;;;6.70;99.90;;;;;;5073984;28;19935;-50
2022/02/22 09:36:20;;;;;;;;;;;6.70;99.90;;;;;;5073594;28;20019;-49
2022/02/22 09:38:46;;;;;;;;;;;6.70;99.90;;;;;;5074200;28;19920;-52
2022/02/22 09:41:12;;;;;;;;;;;6.70;99.90;;;;;;5074235;28;19920;-51
2022/02/22 09:43:37;;;;;;;;;;;6.70;99.90;;;;;;5074561;28;20039;-51
2022/02/22 09:46:09;;;;;;;;;;;6.70;99.90;;;;;;5073897;28;19920;-50
2022/02/22 09:48:37;;;;;;;;;;;6.70;99.90;;;;;;5074002;28;20032;-51
2022/02/22 09:51:03;;;;;;;;;;;6.70;99.90;;;;;;5074126;28;19923;-52
2022/02/22 09:53:29;;;;;;;;;;;6.80;99.90;;;;;;5074138;28;19916;-49
2022/02/22 09:55:58;;;;;;;;;;;6.70;99.90;;;;;;5073814;28;19978;-53
2022/02/22 09:58:23;;;;;;;;;;;6.80;99.90;;;;;;5073771;28;20378;-51
2022/02/22 10:01:00;;;;;;;;;;;6.80;99.90;;;;;;5073569;28;19967;-49
2022/02/22 10:03:25;;;;;;;;;;;6.80;99.90;;;;;;5073864;28;19927;-51
2022/02/22 10:05:55;;;;;;;;;;;6.80;99.90;;;;;;5073389;28;19920;-51
2022/02/22 10:08:39;;;;;;;;;;;6.80;99.90;;;;;;5073553;28;20459;-49
2022/02/22 10:11:06;;;;;;;;;;;6.80;99.90;;;;;;5073440;28;20007;-49
2022/02/22 10:13:32;;;;;;;;;;;6.90;99.90;;;;;;5073404;28;19923;-51
2022/02/22 10:15:58;;;;;;;;;;;6.90;99.90;;;;;;5073495;28;19916;-49
2022/02/22 10:18:24;;;;;;;;;;;6.90;99.90;;;;;;5073400;28;20011;-49
2022/02/22 10:20:49;;;;;;;;;;;7.00;99.90;;;;;;5073328;28;19966;-51
2022/02/22 10:23:25;;;;;;;;;;;7.00;99.90;;;;;;5073325;28;19963;-52
2022/02/22 10:25:54;;;;;;;;;;;7.10;99.90;;;;;;5073080;28;19977;-50
2022/02/22 10:28:20;;;;;;;;;;;7.10;99.90;;;;;;5072970;28;19916;-50
2022/02/22 10:30:48;;;;;;;;;;;7.10;99.90;;;;;;5072930;28;19939;-52
2022/02/22 10:33:15;;;;;;;;;;;7.10;99.90;;;;;;5073190;28;19939;-50
2022/02/22 10:35:42;;;;;;;;;;;7.20;99.90;;;;;;5073156;28;19959;-52
2022/02/22 10:38:11;;;;;;;;;;;7.20;99.90;;;;;;5073050;28;19917;-47
2022/02/22 10:40:37;;;;;;;;;;;7.10;99.90;;;;;;5072896;28;19916;-51
2022/02/22 10:43:03;;;;;;;;;;;7.10;99.90;;;;;;5073152;28;19924;-51
2022/02/22 10:45:28;;;;;;;;;;;7.10;99.90;;;;;;5072976;28;19920;-51
2022/02/22 10:47:57;;;;;;;;;;;7.20;99.90;;;;;;5071049;28;20325;-48
2022/02/22 10:50:25;;;;;;;;;;;7.20;99.90;;;;;;5072638;28;19916;-51
2022/02/22 10:52:51;;;;;;;;;;;7.30;99.90;;;;;;5072636;28;19931;-51
2022/02/22 10:55:17;;;;;;;;;;;7.20;99.90;;;;;;5072799;28;19916;-52
2022/02/22 10:57:43;;;;;;;;;;;7.20;99.90;;;;;;5072797;28;20420;-48
2022/02/22 11:00:09;;;;;;;;;;;7.30;99.90;;;;;;5072581;28;19917;-48
2022/02/22 11:02:35;;;;;;;;;;;7.30;99.90;;;;;;5072672;28;20370;-52
2022/02/22 11:05:01;;;;;;;;;;;7.40;99.90;;;;;;5072793;28;19923;-50
2022/02/22 11:07:27;;;;;;;;;;;7.40;99.90;;;;;;5072420;28;19917;-52
2022/02/22 11:09:53;;;;;;;;;;;7.40;99.90;;;;;;5072408;28;19943;-51
2022/02/22 11:12:23;;;;;;;;;;;7.40;99.90;;;;;;5072542;28;20389;-52
2022/02/22 11:14:49;;;;;;;;;;;7.40;99.90;;;;;;5072489;28;19923;-50
2022/02/22 11:17:18;;;;;;;;;;;7.40;99.90;;;;;;5072405;28;20351;-52
2022/02/22 11:19:47;;;;;;;;;;;7.40;99.90;;;;;;5072282;28;20365;-52
2022/02/22 11:22:15;;;;;;;;;;;7.40;99.90;;;;;;5072680;28;19923;-50
2022/02/22 11:24:44;;;;;;;;;;;7.40;99.90;;;;;;5072605;28;19916;-49
2022/02/22 11:27:10;;;;;;;;;;;7.40;99.90;;;;;;5072366;28;19920;-52
2022/02/22 11:29:36;;;;;;;;;;;7.50;99.90;;;;;;5072402;28;19927;-49
2022/02/22 11:32:01;;;;;;;;;;;7.50;99.90;;;;;;5071900;28;19922;-51
2022/02/22 11:34:28;;;;;;;;;;;7.50;99.90;;;;;;5104835;28;19917;-49
2022/02/22 11:36:56;;;;;;;;;;;7.40;99.90;;;;;;5072107;28;20005;-47
2022/02/22 11:39:22;;;;;;;;;;;7.40;99.90;;;;;;5072086;28;20021;-49
2022/02/22 11:41:47;;;;;;;;;;;7.50;99.90;;;;;;5072358;28;19959;-48
2022/02/22 11:44:17;;;;;;;;;;;7.50;99.90;;;;;;5072257;28;19923;-48
2022/02/22 11:46:44;;;;;;;;;;;7.50;99.90;;;;;;5072078;28;19921;-46
2022/02/22 11:49:11;;;;;;;;;;;7.50;99.90;;;;;;5072026;28;19920;-49
2022/02/22 11:51:47;;;;;;;;;;;7.50;99.90;;;;;;5071072;28;20313;-53
2022/02/22 11:54:23;;;;;;;;;;;7.50;99.90;;;;;;5072163;28;19927;-50
2022/02/22 11:57:00;;;;;;;;;;;7.50;99.90;;;;;;5071983;28;19916;-52
2022/02/22 11:59:30;;;;;;;;;;;7.50;99.90;;;;;;5072593;28;20390;-51
2022/02/22 12:01:56;;;;;;;;;;;7.40;99.90;;;;;;5075914;28;19923;-49
2022/02/22 12:04:23;;;;;;;;;;;7.40;99.90;;;;;;5108625;28;20011;-51
2022/02/22 12:06:49;;;;;;;;;;;7.30;99.90;;;;;;5075819;28;19924;-51
2022/02/22 12:09:15;;;;;;;;;;;7.20;99.90;;;;;;5108682;28;19924;-53
2022/02/22 12:11:41;;;;;;;;;;;7.20;99.90;;;;;;5076147;28;20496;-51
2022/02/22 12:14:10;;;;;;;;;;;7.10;99.90;;;;;;5075648;28;19916;-49
2022/02/22 12:16:40;;;;;;;;;;;7.10;99.90;;;;;;5075814;28;20331;-52
2022/02/22 12:19:07;;;;;;;;;;;7.10;99.90;;;;;;5075693;28;20446;-49
2022/02/22 12:21:34;;;;;;;;;;;7.10;99.90;;;;;;5075733;28;19916;-53
2022/02/22 12:24:00;;;;;;;;;;;7.10;99.90;;;;;;5075408;28;19938;-51
2022/02/22 12:26:26;;;;;;;;;;;7.00;99.90;;;;;;5075617;28;19924;-60
2022/02/22 12:28:52;;;;;;;;;;;7.10;99.90;;;;;;5075296;28;19970;-60
2022/02/22 12:31:24;;;;;;;;;;;7.10;99.90;;;;;;5075255;28;20338;-60
2022/02/22 12:33:50;;;;;;;;;;;7.10;99.90;;;;;;5075642;28;20298;-59
2022/02/22 12:36:17;;;;;;;;;;;7.10;99.90;;;;;;5075444;28;19920;-60
2022/02/22 12:38:43;;;;;;;;;;;7.10;99.90;;;;;;5073949;28;19917;-60
2022/02/22 12:41:12;;;;;;;;;;;7.20;99.90;;;;;;5075042;28;19939;-59
2022/02/22 12:43:48;;;;;;;;;;;7.20;99.90;;;;;;5075362;28;19917;-59
2022/02/22 12:46:14;;;;;;;;;;;7.20;99.90;;;;;;5075325;28;19920;-60
2022/02/22 12:48:43;;;;;;;;;;;7.20;99.90;;;;;;5075069;28;19923;-59
2022/02/22 12:51:17;;;;;;;;;;;7.30;99.90;;;;;;5074923;28;19917;-59
2022/02/22 12:53:42;;;;;;;;;;;7.30;99.90;;;;;;5074954;28;19934;-60
2022/02/22 12:56:08;;;;;;;;;;;7.30;99.90;;;;;;5075344;28;19920;-60
2022/02/22 12:58:34;;;;;;;;;;;7.30;99.90;;;;;;5075260;28;19921;-60
2022/02/22 13:01:16;;;;;;;;;;;7.30;99.90;;;;;;5074903;28;19917;-60
2022/02/22 13:03:42;;;;;;;;;;;7.30;99.90;;;;;;5074674;28;20282;-61
2022/02/22 13:06:10;;;;;;;;;;;7.30;99.90;;;;;;5075141;28;19920;-60
2022/02/22 13:08:36;;;;;;;;;;;7.40;99.90;;;;;;5074441;28;19927;-60
2022/02/22 13:11:02;;;;;;;;;;;7.40;99.90;;;;;;5074037;28;19916;-60
2022/02/22 13:13:28;;;;;;;;;;;7.40;99.90;;;;;;5074511;28;20416;-60
2022/02/22 13:15:54;;;;;;;;;;;7.40;99.90;;;;;;5074658;28;19970;-60
2022/02/22 13:18:22;;;;;;;;;;;7.40;99.90;;;;;;5074700;28;19920;-52
2022/02/22 13:20:48;;;;;;;;;;;7.40;99.90;;;;;;5074491;28;19916;-59
2022/02/22 13:23:15;;;;;;;;;;;7.40;99.90;;;;;;5074423;28;19916;-50
2022/02/22 13:25:42;;;;;;;;;;;7.50;99.90;;;;;;5074655;28;19982;-47
2022/02/22 13:28:08;;;;;;;;;;;7.40;99.90;;;;;;5074538;28;20282;-51
2022/02/22 13:30:35;;;;;;;;;;;7.50;99.90;;;;;;5074417;28;19924;-49
2022/02/22 13:33:02;;;;;;;;;;;7.50;99.90;;;;;;5074845;28;19920;-50
2022/02/22 13:35:28;;;;;;;;;;;7.50;99.90;;;;;;5074278;28;20329;-50
2022/02/22 13:37:54;;;;;;;;;;;7.60;99.90;;;;;;5074502;28;19970;-50
2022/02/22 13:40:20;;;;;;;;;;;7.70;99.90;;;;;;5074511;28;19995;-48
2022/02/22 13:42:47;;;;;;;;;;;7.70;99.90;;;;;;5072997;28;19920;-60
2022/02/22 13:45:14;;;;;;;;;;;7.70;99.90;;;;;;5074046;28;19931;-60
2022/02/22 13:47:41;;;;;;;;;;;7.70;99.90;;;;;;5073914;28;20397;-61
2022/02/22 13:50:12;;;;;;;;;;;7.70;99.90;;;;;;5073978;28;20289;-61
2022/02/22 13:52:39;;;;;;;;;;;7.90;99.90;;;;;;5074119;28;20432;-50
2022/02/22 13:55:06;;;;;;;;;;;7.90;99.90;;;;;;5074204;28;20305;-61
2022/02/22 13:57:36;;;;;;;;;;;7.90;99.90;;;;;;5073682;28;19917;-61
2022/02/22 14:00:02;;;;;;;;;;;8.00;99.90;;;;;;5073876;28;20404;-51
2022/02/22 14:02:29;;;;;;;;;;;8.00;99.90;;;;;;5073830;28;19969;-50
2022/02/22 14:04:54;;;;;;;;;;;7.90;99.90;;;;;;5073960;28;19916;-61
2022/02/22 14:07:20;;;;;;;;;;;8.00;99.90;;;;;;5073589;28;20425;-61
2022/02/22 14:09:47;;;;;;;;;;;8.10;99.90;;;;;;5073690;28;19916;-51
2022/02/22 14:12:13;;;;;;;;;;;8.10;99.90;;;;;;5073780;28;19923;-52
2022/02/22 14:14:39;;;;;;;;;;;8.10;99.90;;;;;;5073476;28;19916;-62
2022/02/22 14:17:05;;;;;;;;;;;8.20;99.90;;;;;;5072124;28;19991;-53
2022/02/22 14:19:30;;;;;;;;;;;8.20;99.90;;;;;;5073803;28;20350;-50
2022/02/22 14:21:56;;;;;;;;;;;8.70;99.90;;;;;;5073704;28;20026;-51
2022/02/22 14:24:21;;;;;;;;;;;8.30;99.90;;;;;;5073548;28;19916;-49